Royal Prince — WCX8037 — position and weather

sailwx.info

Track history (hours):
 
Tides and Currents Weather Stations Pressure Air Temp Water Temp Dewpoint Dewpoint Depression Visibility Wind Speed Wind Dir Waves Ship Positions

Royal Prince

Owner: Golden Gate Scenic Steamship Corp, SAN FRANCISCO, CA. More information available from US FCC via Universal Licensing System and Coast Guard Vessel Documentation Center.

Last reported at 2017-Feb-28 03:33 UTC. Time now 2017-Feb-28 10:04 UTC.
Position N 37°49' W 122°25'.

; draft 3 m.

Type: Passenger vessel. MMSI: 366975760.

Date/timePositionNaut miles runAvg speedWind from/ knotsBaromVisibWave heightAir tempDewpointWater temp
2017-Feb-28 03:33N 37°49' W 122°25'2 2.0
2017-Feb-28 02:33N 37°48' W 122°22'2 2.2
2017-Feb-28 01:33N 37°49' W 122°25'1 1.0
2017-Feb-28 00:34N 37°50' W 122°25'1 1.1
2017-Feb-27 23:33N 37°49' W 122°25'0 0.1
2017-Feb-27 22:33N 37°49' W 122°25'3 2.9
2017-Feb-27 21:33N 37°49' W 122°28'3 2.9
2017-Feb-27 20:33N 37°49' W 122°25'2 2.1
2017-Feb-27 19:33N 37°49' W 122°28'2 2.1
2017-Feb-27 18:33N 37°49' W 122°25'0 0.0
2017-Feb-27 03:33N 37°49' W 122°25'2 2.0
2017-Feb-27 02:33N 37°49' W 122°22'2 2.0
2017-Feb-27 01:34N 37°49' W 122°25'1 1.1
2017-Feb-27 00:33N 37°50' W 122°25'1 1.1
2017-Feb-26 23:34N 37°49' W 122°25'0 0.1
2017-Feb-26 22:34N 37°49' W 122°25'3 3.0
2017-Feb-26 21:34N 37°49' W 122°29'3 3.1
2017-Feb-26 20:33N 37°49' W 122°25'3 2.5
2017-Feb-26 19:34N 37°49' W 122°28'1 1.0
2017-Feb-26 18:34N 37°50' W 122°27'2 0.1
2017-Feb-26 03:34N 37°49' W 122°25'2 2.4
2017-Feb-26 02:34N 37°48' W 122°22'2 2.4
2017-Feb-26 01:34N 37°49' W 122°25'1 0.8
2017-Feb-26 00:34N 37°49' W 122°25'1 0.9
2017-Feb-25 23:33N 37°49' W 122°25'0 0.1
2017-Feb-25 22:33N 37°49' W 122°25'3 3.2
2017-Feb-25 21:33N 37°49' W 122°29'3 3.3
2017-Feb-25 20:33N 37°49' W 122°25'3 2.5
2017-Feb-25 19:33N 37°49' W 122°28'1 1.2
2017-Feb-25 18:33N 37°50' W 122°27'2 1.9
2017-Feb-25 17:33N 37°49' W 122°25'0 0.0
2017-Feb-25 03:33N 37°49' W 122°25'3 2.8
2017-Feb-25 02:33N 37°48' W 122°21'3 2.8
2017-Feb-25 01:33N 37°49' W 122°25'1 0.9
2017-Feb-25 00:33N 37°50' W 122°25'1 0.9
2017-Feb-24 23:33N 37°49' W 122°25'0 0.1
2017-Feb-24 22:33N 37°49' W 122°25'3 3.1
2017-Feb-24 21:33N 37°49' W 122°29'3 3.1
2017-Feb-24 20:33N 37°49' W 122°25'2 2.1
2017-Feb-24 19:34N 37°49' W 122°28'1 0.9
2017-Feb-24 18:33N 37°50' W 122°27'2 1.9
2017-Feb-24 17:34N 37°49' W 122°25'0 0.0
2017-Feb-24 03:33N 37°49' W 122°25'3 2.9
2017-Feb-24 02:33N 37°49' W 122°21'3 2.9
2017-Feb-24 01:33N 37°49' W 122°25'1 0.7
2017-Feb-24 00:33N 37°49' W 122°25'1 0.7
2017-Feb-23 23:33N 37°49' W 122°25'0 0.0
2017-Feb-23 22:34N 37°49' W 122°25'3 3.1
2017-Feb-23 21:33N 37°49' W 122°29'3 3.1
2017-Feb-23 20:33N 37°49' W 122°25'2 2.3
2017-Feb-23 19:33N 37°49' W 122°28'1 0.8
2017-Feb-23 18:33N 37°49' W 122°27'2 1.9
2017-Feb-23 17:33N 37°49' W 122°25'0 0.0
2017-Feb-23 15:32N 37°49' W 122°25'0 0.0
2017-Feb-23 00:33N 37°49' W 122°25'0 0.3
2017-Feb-22 23:33N 37°49' W 122°25'0 0.1
2017-Feb-22 22:33N 37°49' W 122°25'3 2.7
2017-Feb-22 21:33N 37°49' W 122°28'3 2.8
2017-Feb-22 20:33N 37°49' W 122°25'2 1.9
2017-Feb-22 19:33N 37°49' W 122°27'1 0.9
2017-Feb-22 18:33N 37°50' W 122°27'2 1.6
2017-Feb-22 17:33N 37°49' W 122°25'1 0.0
2017-Feb-22 00:33N 37°49' W 122°25'1 0.7
2017-Feb-21 23:33N 37°49' W 122°25'0 0.1
2017-Feb-21 22:34N 37°49' W 122°25'3 3.0
2017-Feb-21 21:34N 37°49' W 122°29'3 3.0
2017-Feb-21 20:33N 37°49' W 122°25'3 2.7
2017-Feb-21 19:34N 37°49' W 122°28'1 1.5
2017-Feb-21 18:33N 37°50' W 122°27'2 1.6
2017-Feb-21 17:33N 37°49' W 122°25'0 0.0
2017-Feb-21 03:33N 37°49' W 122°25'2 2.0
2017-Feb-21 02:33N 37°48' W 122°23'2 2.0
2017-Feb-21 01:33N 37°49' W 122°25'0 0.0
2017-Feb-21 00:33N 37°49' W 122°25'0 0.0
2017-Feb-20 23:33N 37°49' W 122°25'0 0.0
2017-Feb-20 22:33N 37°49' W 122°25'3 2.9
2017-Feb-20 21:33N 37°49' W 122°28'3 2.9
2017-Feb-20 20:33N 37°49' W 122°25'2 2.2
2017-Feb-20 19:33N 37°49' W 122°28'0 0.1
2017-Feb-20 18:33N 37°49' W 122°28'2 0.2
2017-Feb-20 03:34N 37°49' W 122°25'1 1.4
2017-Feb-20 02:34N 37°49' W 122°23'1 1.4
2017-Feb-20 01:34N 37°49' W 122°25'1 0.5
2017-Feb-20 00:34N 37°49' W 122°25'1 0.5
2017-Feb-19 23:34N 37°49' W 122°25'0 0.0
2017-Feb-19 22:33N 37°49' W 122°25'3 2.9
2017-Feb-19 21:34N 37°49' W 122°28'3 2.9
2017-Feb-19 20:33N 37°49' W 122°25'2 1.9
2017-Feb-19 19:34N 37°49' W 122°27'1 0.6
2017-Feb-19 18:33N 37°49' W 122°27'2 0.1
2017-Feb-19 03:33N 37°49' W 122°25'2 1.7
2017-Feb-19 02:33N 37°49' W 122°23'2 1.6
2017-Feb-19 01:32N 37°49' W 122°25'1 0.8
2017-Feb-19 00:33N 37°49' W 122°24'1 0.7
2017-Feb-18 23:33N 37°49' W 122°25'0 0.1
2017-Feb-18 22:33N 37°49' W 122°25'3 2.7
2017-Feb-18 21:33N 37°49' W 122°28'3 2.8
2017-Feb-18 20:33N 37°49' W 122°25'2 2.3
2017-Feb-18 19:33N 37°49' W 122°28'0 0.4
2017-Feb-18 18:33N 37°49' W 122°27'2 2.1
2017-Feb-18 17:33N 37°49' W 122°25'  
Track history (hours):
 
Tides and Currents Weather Stations Pressure Air Temp Water Temp Dewpoint Dewpoint Depression Visibility Wind Speed Wind Dir Waves Ship Positions

Royal Prince

Owner: Golden Gate Scenic Steamship Corp, SAN FRANCISCO, CA. More information available from US FCC via Universal Licensing System and Coast Guard Vessel Documentation Center.

Last reported at 2017-Feb-28 03:33 UTC. Time now 2017-Feb-28 10:04 UTC.
Position N 37°49' W 122°25'.

; draft 3 m.

Type: Passenger vessel. MMSI: 366975760.

Date/timePositionNaut miles runAvg speedWind from/ knotsBaromVisibWave heightAir tempDewpointWater temp
2017-Feb-28 03:33N 37°49' W 122°25'2 2.0
2017-Feb-28 02:33N 37°48' W 122°22'2 2.2
2017-Feb-28 01:33N 37°49' W 122°25'1 1.0
2017-Feb-28 00:34N 37°50' W 122°25'1 1.1
2017-Feb-27 23:33N 37°49' W 122°25'0 0.1
2017-Feb-27 22:33N 37°49' W 122°25'3 2.9
2017-Feb-27 21:33N 37°49' W 122°28'3 2.9
2017-Feb-27 20:33N 37°49' W 122°25'2 2.1
2017-Feb-27 19:33N 37°49' W 122°28'2 2.1
2017-Feb-27 18:33N 37°49' W 122°25'0 0.0
2017-Feb-27 03:33N 37°49' W 122°25'2 2.0
2017-Feb-27 02:33N 37°49' W 122°22'2 2.0
2017-Feb-27 01:34N 37°49' W 122°25'1 1.1
2017-Feb-27 00:33N 37°50' W 122°25'1 1.1
2017-Feb-26 23:34N 37°49' W 122°25'0 0.1
2017-Feb-26 22:34N 37°49' W 122°25'3 3.0
2017-Feb-26 21:34N 37°49' W 122°29'3 3.1
2017-Feb-26 20:33N 37°49' W 122°25'3 2.5
2017-Feb-26 19:34N 37°49' W 122°28'1 1.0
2017-Feb-26 18:34N 37°50' W 122°27'2 0.1
2017-Feb-26 03:34N 37°49' W 122°25'2 2.4
2017-Feb-26 02:34N 37°48' W 122°22'2 2.4
2017-Feb-26 01:34N 37°49' W 122°25'1 0.8
2017-Feb-26 00:34N 37°49' W 122°25'1 0.9
2017-Feb-25 23:33N 37°49' W 122°25'0 0.1
2017-Feb-25 22:33N 37°49' W 122°25'3 3.2
2017-Feb-25 21:33N 37°49' W 122°29'3 3.3
2017-Feb-25 20:33N 37°49' W 122°25'3 2.5
2017-Feb-25 19:33N 37°49' W 122°28'1 1.2
2017-Feb-25 18:33N 37°50' W 122°27'2 1.9
2017-Feb-25 17:33N 37°49' W 122°25'0 0.0
2017-Feb-25 03:33N 37°49' W 122°25'3 2.8
2017-Feb-25 02:33N 37°48' W 122°21'3 2.8
2017-Feb-25 01:33N 37°49' W 122°25'1 0.9
2017-Feb-25 00:33N 37°50' W 122°25'1 0.9
2017-Feb-24 23:33N 37°49' W 122°25'0 0.1
2017-Feb-24 22:33N 37°49' W 122°25'3 3.1
2017-Feb-24 21:33N 37°49' W 122°29'3 3.1
2017-Feb-24 20:33N 37°49' W 122°25'2 2.1
2017-Feb-24 19:34N 37°49' W 122°28'1 0.9
2017-Feb-24 18:33N 37°50' W 122°27'2 1.9
2017-Feb-24 17:34N 37°49' W 122°25'0 0.0
2017-Feb-24 03:33N 37°49' W 122°25'3 2.9
2017-Feb-24 02:33N 37°49' W 122°21'3 2.9
2017-Feb-24 01:33N 37°49' W 122°25'1 0.7
2017-Feb-24 00:33N 37°49' W 122°25'1 0.7
2017-Feb-23 23:33N 37°49' W 122°25'0 0.0
2017-Feb-23 22:34N 37°49' W 122°25'3 3.1
2017-Feb-23 21:33N 37°49' W 122°29'3 3.1
2017-Feb-23 20:33N 37°49' W 122°25'2 2.3
2017-Feb-23 19:33N 37°49' W 122°28'1 0.8
2017-Feb-23 18:33N 37°49' W 122°27'2 1.9
2017-Feb-23 17:33N 37°49' W 122°25'0 0.0
2017-Feb-23 15:32N 37°49' W 122°25'0 0.0
2017-Feb-23 00:33N 37°49' W 122°25'0 0.3
2017-Feb-22 23:33N 37°49' W 122°25'0 0.1
2017-Feb-22 22:33N 37°49' W 122°25'3 2.7
2017-Feb-22 21:33N 37°49' W 122°28'3 2.8
2017-Feb-22 20:33N 37°49' W 122°25'2 1.9
2017-Feb-22 19:33N 37°49' W 122°27'1 0.9
2017-Feb-22 18:33N 37°50' W 122°27'2 1.6
2017-Feb-22 17:33N 37°49' W 122°25'1 0.0
2017-Feb-22 00:33N 37°49' W 122°25'1 0.7
2017-Feb-21 23:33N 37°49' W 122°25'0 0.1
2017-Feb-21 22:34N 37°49' W 122°25'3 3.0
2017-Feb-21 21:34N 37°49' W 122°29'3 3.0
2017-Feb-21 20:33N 37°49' W 122°25'3 2.7
2017-Feb-21 19:34N 37°49' W 122°28'1 1.5
2017-Feb-21 18:33N 37°50' W 122°27'2 1.6
2017-Feb-21 17:33N 37°49' W 122°25'0 0.0
2017-Feb-21 03:33N 37°49' W 122°25'2 2.0
2017-Feb-21 02:33N 37°48' W 122°23'2 2.0
2017-Feb-21 01:33N 37°49' W 122°25'0 0.0
2017-Feb-21 00:33N 37°49' W 122°25'0 0.0
2017-Feb-20 23:33N 37°49' W 122°25'0 0.0
2017-Feb-20 22:33N 37°49' W 122°25'3 2.9
2017-Feb-20 21:33N 37°49' W 122°28'3 2.9
2017-Feb-20 20:33N 37°49' W 122°25'2 2.2
2017-Feb-20 19:33N 37°49' W 122°28'0 0.1
2017-Feb-20 18:33N 37°49' W 122°28'2 0.2
2017-Feb-20 03:34N 37°49' W 122°25'1 1.4
2017-Feb-20 02:34N 37°49' W 122°23'1 1.4
2017-Feb-20 01:34N 37°49' W 122°25'1 0.5
2017-Feb-20 00:34N 37°49' W 122°25'1 0.5
2017-Feb-19 23:34N 37°49' W 122°25'0 0.0
2017-Feb-19 22:33N 37°49' W 122°25'3 2.9
2017-Feb-19 21:34N 37°49' W 122°28'3 2.9
2017-Feb-19 20:33N 37°49' W 122°25'2 1.9
2017-Feb-19 19:34N 37°49' W 122°27'1 0.6
2017-Feb-19 18:33N 37°49' W 122°27'2 0.1
2017-Feb-19 03:33N 37°49' W 122°25'2 1.7
2017-Feb-19 02:33N 37°49' W 122°23'2 1.6
2017-Feb-19 01:32N 37°49' W 122°25'1 0.8
2017-Feb-19 00:33N 37°49' W 122°24'1 0.7
2017-Feb-18 23:33N 37°49' W 122°25'0 0.1
2017-Feb-18 22:33N 37°49' W 122°25'3 2.7
2017-Feb-18 21:33N 37°49' W 122°28'3 2.8
2017-Feb-18 20:33N 37°49' W 122°25'2 2.3
2017-Feb-18 19:33N 37°49' W 122°28'0 0.4
2017-Feb-18 18:33N 37°49' W 122°27'2 2.1
2017-Feb-18 17:33N 37°49' W 122°25'  

Dump ship's entire track history